Terminal Aerodrome Forecast
Issued by NWS

Home | Current Version | Previous Version | Text Only | Print | Product List | Glossary On
Versions: 1 2 3 4 5 6 7 8 9 10 11 12 13 14 15 16 17 18 19 20 21 22 23
146
FTUS41 KBUF 301502 AAA
TAFJHW
TAF AMD
KJHW 301502Z 3015/0112 10009G15KT P6SM VCSH SCT015 BKN030
     FM301800 10014G20KT P6SM VCSH OVC020
     FM302300 10012KT P6SM VCSH OVC012
     FM010800 12008KT 1 1/2SM BR VCSH BKN005
      AMD LTD TO CLD VIS AND WIND=

USA.gov is the U.S. government's official web portal to all federal, state and local government web resources and services.